TimeCDT,TemperatureF,Dew PointF,Humidity,Sea Level PressureIn,VisibilityMPH,Wind Direction,Wind SpeedMPH,Gust SpeedMPH,PrecipitationIn,Events,Conditions,WindDirDegrees,DateUTC
12:55 AM,67.6,65.8,94,29.94,6.0,SSW,6.9,-,N/A,,Overcast,210,2013-04-01 05:55:00
1:55 AM,67.8,63.9,87,29.95,6.0,WSW,5.8,-,N/A,,Mostly Cloudy,240,2013-04-01 06:55:00
2:55 AM,67.6,64.4,89,29.95,6.0,SW,6.9,-,N/A,,Overcast,230,2013-04-01 07:55:00
3:55 AM,66.6,64.2,92,29.94,6.0,SW,4.6,-,N/A,,Scattered Clouds,230,2013-04-01 08:55:00
4:55 AM,64.8,63.3,95,29.95,5.0,Variable,3.5,-,N/A,Fog,Partly Cloudy,0,2013-04-01 09:55:00
5:55 AM,63.1,61.2,93,29.98,10.0,NW,4.6,-,N/A,,Scattered Clouds,310,2013-04-01 10:55:00
6:28 AM,60.8,60.8,100,29.98,10.0,WNW,3.5,-,N/A,,Mostly Cloudy,300,2013-04-01 11:28:00
6:55 AM,61.2,59.7,95,30.00,10.0,WNW,2.3,-,N/A,,Scattered Clouds,300,2013-04-01 11:55:00
7:55 AM,63.1,58.8,86,30.03,10.0,WNW,4.6,-,N/A,,Scattered Clouds,300,2013-04-01 12:55:00
8:55 AM,67.5,57.2,70,30.02,10.0,NW,9.2,-,N/A,,Partly Cloudy,310,2013-04-01 13:55:00
9:55 AM,70.9,56.7,61,30.03,10.0,NW,8.1,-,N/A,,Partly Cloudy,310,2013-04-01 14:55:00
10:55 AM,74.5,55.9,52,30.03,10.0,NW,13.8,16.1,N/A,,Partly Cloudy,310,2013-04-01 15:55:00
11:55 AM,76.1,56.3,50,30.03,10.0,NW,10.4,20.7,N/A,,Partly Cloudy,310,2013-04-01 16:55:00
12:57 PM,76.5,55.2,48,30.03,10.0,WNW,12.7,19.6,N/A,,Partly Cloudy,300,2013-04-01 17:57:00
1:55 PM,77.9,55.2,45,30.01,10.0,NW,12.7,17.3,N/A,,Partly Cloudy,310,2013-04-01 18:55:00
2:55 PM,78.4,53.8,42,30.00,10.0,NW,15.0,-,N/A,,Partly Cloudy,310,2013-04-01 19:55:00
3:56 PM,78.6,53.1,41,29.99,10.0,NNW,10.4,-,N/A,,Partly Cloudy,330,2013-04-01 20:56:00
4:55 PM,77.9,48.2,35,30.00,10.0,NNW,9.2,-,N/A,,Partly Cloudy,330,2013-04-01 21:55:00
5:18 PM,77.0,50.0,39,29.98,10.0,NW,10.4,-,N/A,,Partly Cloudy,310,2013-04-01 22:18:00
5:55 PM,76.6,51.3,41,30.00,10.0,NNW,8.1,-,N/A,,Partly Cloudy,330,2013-04-01 22:55:00
6:55 PM,73.2,52.5,48,30.00,10.0,NNW,6.9,-,N/A,,Clear,330,2013-04-01 23:55:00
7:55 PM,68.2,52.5,57,30.03,10.0,NNW,6.9,-,N/A,,Clear,330,2013-04-02 00:55:00
8:55 PM,65.7,53.1,64,30.04,10.0,NNW,6.9,-,N/A,,Clear,330,2013-04-02 01:55:00
9:55 PM,63.3,52.3,67,30.04,10.0,NNW,6.9,-,N/A,,Clear,330,2013-04-02 02:55:00
10:55 PM,58.3,51.3,77,30.06,10.0,NNW,3.5,-,N/A,,Clear,330,2013-04-02 03:55:00
11:55 PM,57.0,51.3,81,30.06,10.0,NNW,3.5,-,N/A,,Clear,340,2013-04-02 04:55:00